createdAt,value
2018-05-06T00:01:04.272Z,100985.30
2018-05-06T00:03:31.784Z,100985.52
2018-05-06T00:05:59.302Z,100984.00
2018-05-06T00:08:26.785Z,100988.08
2018-05-06T00:10:54.319Z,100987.27
2018-05-06T00:13:21.797Z,100985.59
2018-05-06T00:15:49.309Z,100984.16
2018-05-06T00:18:16.784Z,100986.54
2018-05-06T00:20:44.298Z,100989.11
2018-05-06T00:23:11.772Z,100992.64
2018-05-06T00:25:39.296Z,100989.61
2018-05-06T00:28:06.797Z,100987.14
2018-05-06T00:30:34.301Z,100996.13
2018-05-06T00:33:01.785Z,100995.28
2018-05-06T00:35:29.309Z,100996.06
2018-05-06T00:37:56.802Z,100994.95
2018-05-06T00:40:24.325Z,100990.98
2018-05-06T00:42:51.829Z,100987.16
2018-05-06T00:45:19.323Z,100987.40
2018-05-06T00:47:46.845Z,100994.28
2018-05-06T00:50:14.392Z,100991.86
2018-05-06T00:52:41.897Z,100997.56
2018-05-06T00:55:09.381Z,100992.33
2018-05-06T00:57:36.889Z,101000.81
2018-05-06T01:00:05.254Z,100986.45
2018-05-06T01:02:32.772Z,100996.19
2018-05-06T01:05:00.545Z,100994.95
2018-05-06T01:07:28.049Z,100994.45
2018-05-06T01:09:55.528Z,100993.31
2018-05-06T01:12:23.033Z,100999.52
2018-05-06T01:14:50.531Z,100996.31
2018-05-06T01:17:18.010Z,100996.78
2018-05-06T01:19:45.509Z,101001.06
2018-05-06T01:22:12.989Z,100992.73
2018-05-06T01:24:40.493Z,101002.16
2018-05-06T01:27:07.970Z,100997.66
2018-05-06T01:29:35.477Z,100996.22
2018-05-06T01:32:02.965Z,101000.66
2018-05-06T01:34:30.469Z,101001.77
2018-05-06T01:36:57.945Z,100998.94
2018-05-06T01:39:25.451Z,100996.98
2018-05-06T01:41:52.945Z,100997.50
2018-05-06T01:44:20.452Z,101000.84
2018-05-06T01:46:47.929Z,101003.80
2018-05-06T01:49:15.434Z,100997.66
2018-05-06T01:51:42.917Z,101007.15
2018-05-06T01:54:10.449Z,100994.16
2018-05-06T01:56:37.940Z,100997.20
2018-05-06T01:59:05.441Z,100998.12
2018-05-06T02:01:32.917Z,101005.27
2018-05-06T02:04:00.537Z,101008.82
2018-05-06T02:06:28.089Z,101011.36
2018-05-06T02:08:55.593Z,101012.84
2018-05-06T02:11:23.096Z,101005.90
2018-05-06T02:13:50.609Z,101008.24
2018-05-06T02:16:18.113Z,101006.47
2018-05-06T02:18:45.600Z,101009.28
2018-05-06T02:21:13.101Z,101008.11
2018-05-06T02:23:40.600Z,101010.50
2018-05-06T02:26:08.129Z,101004.73
2018-05-06T02:28:35.609Z,101003.36
2018-05-06T02:31:03.119Z,101008.88
2018-05-06T02:33:30.609Z,101012.68
2018-05-06T02:35:58.139Z,101017.91
2018-05-06T02:38:25.621Z,101016.27
2018-05-06T02:40:53.124Z,101019.45
2018-05-06T02:43:20.605Z,101021.02
2018-05-06T02:45:48.241Z,101022.21
2018-05-06T02:48:15.745Z,101017.45
2018-05-06T02:50:43.229Z,101018.02
2018-05-06T02:53:10.746Z,101019.48
2018-05-06T02:55:38.221Z,101022.80
2018-05-06T02:58:05.789Z,101023.22
2018-05-06T03:00:33.288Z,101023.18
2018-05-06T03:03:00.813Z,101024.30
2018-05-06T03:05:28.288Z,101020.07
2018-05-06T03:07:55.789Z,101025.73
2018-05-06T03:10:23.273Z,101020.80
2018-05-06T03:12:50.777Z,101023.85
2018-05-06T03:15:18.266Z,101026.64
2018-05-06T03:17:45.778Z,101021.25
2018-05-06T03:20:13.273Z,101025.39
2018-05-06T03:22:40.808Z,101022.25
2018-05-06T03:25:08.310Z,101024.69
2018-05-06T03:27:35.825Z,101025.47
2018-05-06T03:30:03.309Z,101027.66
2018-05-06T03:32:30.792Z,101024.27
2018-05-06T03:34:58.293Z,101029.70
2018-05-06T03:37:25.769Z,101033.20
2018-05-06T03:39:53.281Z,101033.02
2018-05-06T03:42:20.758Z,101033.45
2018-05-06T03:44:48.289Z,101038.47
2018-05-06T03:47:15.784Z,101039.24
2018-05-06T03:49:43.297Z,101040.97
2018-05-06T03:52:10.793Z,101039.00
2018-05-06T03:54:38.297Z,101041.45
2018-05-06T03:57:17.668Z,101038.79
2018-05-06T03:59:57.056Z,101032.51
2018-05-06T04:02:39.409Z,101035.38
2018-05-06T04:05:06.952Z,101032.27
2018-05-06T04:07:34.480Z,101035.55
2018-05-06T04:10:01.970Z,101036.66
2018-05-06T04:12:29.452Z,101034.17
2018-05-06T04:14:56.952Z,101036.92
2018-05-06T04:17:24.432Z,101034.23
2018-05-06T04:19:51.943Z,101044.94
2018-05-06T04:22:19.421Z,101049.77
2018-05-06T04:24:46.933Z,101040.51
2018-05-06T04:27:14.419Z,101045.27
2018-05-06T04:29:41.953Z,101052.88
2018-05-06T04:32:09.436Z,101048.92
2018-05-06T04:34:36.978Z,101046.70
2018-05-06T04:37:04.468Z,101058.42
2018-05-06T04:39:31.989Z,101057.23
2018-05-06T04:41:59.467Z,101057.02
2018-05-06T04:44:27.163Z,101054.83
2018-05-06T04:46:54.645Z,101050.44
2018-05-06T04:49:22.128Z,101048.66
2018-05-06T04:51:49.653Z,101039.20
2018-05-06T04:54:17.145Z,101036.89
2018-05-06T04:56:44.656Z,101034.08
2018-05-06T04:59:12.137Z,101037.82
2018-05-06T05:01:39.641Z,101035.39
2018-05-06T05:04:07.137Z,101038.50
2018-05-06T05:06:34.661Z,101039.34
2018-05-06T05:09:02.148Z,101032.53
2018-05-06T05:11:29.658Z,101023.94
2018-05-06T05:13:57.136Z,101032.80
2018-05-06T05:16:24.640Z,101033.26
2018-05-06T05:18:52.125Z,101025.28
2018-05-06T05:21:19.601Z,101029.34
2018-05-06T05:23:47.197Z,101030.50
2018-05-06T05:26:14.718Z,101029.35
2018-05-06T05:28:42.229Z,101031.91
2018-05-06T05:31:09.720Z,101028.91
2018-05-06T05:33:37.248Z,101032.66
2018-05-06T05:36:04.737Z,101031.09
2018-05-06T05:38:32.241Z,101035.77
2018-05-06T05:40:59.720Z,101030.73
2018-05-06T05:43:27.261Z,101028.11
2018-05-06T05:45:54.761Z,101024.92
2018-05-06T05:48:22.265Z,101022.90
2018-05-06T05:50:49.744Z,101031.31
2018-05-06T05:53:17.233Z,101030.06
2018-05-06T05:55:44.765Z,101039.46
2018-05-06T05:58:12.280Z,101048.13
2018-05-06T06:00:39.790Z,101030.66
2018-05-06T06:03:07.269Z,101037.97
2018-05-06T06:05:34.779Z,101029.27
2018-05-06T06:08:02.257Z,101037.97
2018-05-06T06:10:29.761Z,101037.88
2018-05-06T06:12:57.245Z,101030.83
2018-05-06T06:15:24.774Z,101034.67
2018-05-06T06:17:52.261Z,101041.58
2018-05-06T06:20:19.768Z,101036.91
2018-05-06T06:22:47.253Z,101048.31
2018-05-06T06:25:15.038Z,101053.17
2018-05-06T06:27:42.527Z,101053.93
2018-05-06T06:30:10.006Z,101056.38
2018-05-06T06:32:37.509Z,101053.04
2018-05-06T06:35:04.993Z,101049.14
2018-05-06T06:37:32.501Z,101054.55
2018-05-06T06:39:59.997Z,101050.31
2018-05-06T06:42:27.510Z,101048.18
2018-05-06T06:44:55.025Z,101050.63
2018-05-06T06:47:22.629Z,101056.61
2018-05-06T06:49:50.137Z,101055.77
2018-05-06T06:52:17.641Z,101056.88
2018-05-06T06:54:45.125Z,101055.46
2018-05-06T06:57:12.657Z,101050.66
2018-05-06T06:59:40.156Z,101052.34
2018-05-06T07:02:07.660Z,101051.80
2018-05-06T07:04:35.144Z,101050.77
2018-05-06T07:07:02.652Z,101045.03
2018-05-06T07:09:30.169Z,101052.54
2018-05-06T07:11:57.688Z,101047.86
2018-05-06T07:14:25.189Z,101053.25
2018-05-06T07:16:52.690Z,101046.47
2018-05-06T07:19:20.273Z,101053.95
2018-05-06T07:21:47.702Z,101047.73
2018-05-06T07:24:15.201Z,101049.12
2018-05-06T07:26:42.677Z,101049.19
2018-05-06T07:29:10.205Z,101050.19
2018-05-06T07:31:37.755Z,101055.42
2018-05-06T07:34:05.213Z,101054.89
2018-05-06T07:36:32.689Z,101051.78
2018-05-06T07:39:00.265Z,101054.78
2018-05-06T07:41:27.782Z,101051.38
2018-05-06T07:43:55.533Z,101060.98
2018-05-06T07:46:23.013Z,101057.16
2018-05-06T07:48:50.523Z,101061.25
2018-05-06T07:51:18.025Z,101056.31
2018-05-06T07:53:45.513Z,101052.75
2018-05-06T07:56:13.029Z,101056.27
2018-05-06T07:58:40.512Z,101065.67
2018-05-06T08:01:08.013Z,101067.58
2018-05-06T08:03:35.493Z,101067.85
2018-05-06T08:06:03.004Z,101059.05
2018-05-06T08:08:30.486Z,101066.42
2018-05-06T08:10:57.988Z,101057.02
2018-05-06T08:13:25.477Z,101049.95
2018-05-06T08:15:53.004Z,101058.49
2018-05-06T08:18:20.488Z,101050.08
2018-05-06T08:20:47.997Z,101047.66
2018-05-06T08:23:15.504Z,101042.34
2018-05-06T08:25:42.995Z,101047.02
2018-05-06T08:28:10.525Z,101035.27
2018-05-06T08:30:38.009Z,101035.26
2018-05-06T08:33:05.513Z,101034.06
2018-05-06T08:35:33.010Z,101028.92
2018-05-06T08:38:00.513Z,101027.27
2018-05-06T08:40:28.009Z,101022.70
2018-05-06T08:42:55.526Z,101014.83
2018-05-06T08:45:23.090Z,101019.04
2018-05-06T08:47:50.621Z,101017.45
2018-05-06T08:50:18.116Z,101021.31
2018-05-06T08:52:45.643Z,101019.36
2018-05-06T08:55:13.132Z,101018.92
2018-05-06T08:57:40.628Z,101017.52
2018-05-06T09:00:08.169Z,101019.08
2018-05-06T09:02:35.685Z,101016.64
2018-05-06T09:05:03.209Z,101016.63
2018-05-06T09:07:30.701Z,101012.33
2018-05-06T09:09:58.200Z,101018.37
2018-05-06T09:12:25.686Z,101020.72
2018-05-06T09:14:53.229Z,101012.29
2018-05-06T09:17:20.709Z,101018.98
2018-05-06T09:19:48.289Z,101020.52
2018-05-06T09:22:15.749Z,101017.00
2018-05-06T09:24:43.271Z,101012.42
2018-05-06T09:27:10.766Z,101015.58
2018-05-06T09:29:38.721Z,101010.73
2018-05-06T09:32:06.205Z,101003.97
2018-05-06T09:34:33.692Z,101010.91
2018-05-06T09:37:02.078Z,101004.59
2018-05-06T09:39:29.565Z,101003.70
2018-05-06T09:41:57.733Z,101000.83
2018-05-06T09:44:25.231Z,100995.97
2018-05-06T09:46:52.717Z,100999.84
2018-05-06T09:49:20.220Z,100998.29
2018-05-06T09:51:47.736Z,101007.71
2018-05-06T09:54:15.388Z,101002.39
2018-05-06T09:56:42.868Z,100992.97
2018-05-06T09:59:10.354Z,100999.29
2018-05-06T10:01:38.001Z,101001.08
2018-05-06T10:04:05.485Z,101004.59
2018-05-06T10:06:32.997Z,101000.80
2018-05-06T10:09:00.950Z,100998.25
2018-05-06T10:11:28.433Z,100998.64
2018-05-06T10:13:56.043Z,101001.21
2018-05-06T10:16:23.601Z,100997.59
2018-05-06T10:18:51.081Z,100993.74
2018-05-06T10:21:18.617Z,100996.84
2018-05-06T10:23:46.101Z,100989.57
2018-05-06T10:26:13.681Z,100988.09
2018-05-06T10:28:41.126Z,100984.13
2018-05-06T10:31:08.601Z,100988.69
2018-05-06T10:33:36.117Z,100982.27
2018-05-06T10:36:03.595Z,100970.38
2018-05-06T10:38:31.313Z,100969.09
2018-05-06T10:40:58.814Z,100953.56
2018-05-06T10:43:26.296Z,100961.73
2018-05-06T10:45:53.826Z,100962.32
2018-05-06T10:48:21.348Z,100956.31
2018-05-06T10:50:49.057Z,100963.50
2018-05-06T10:53:16.537Z,100950.52
2018-05-06T10:55:44.022Z,100951.13
2018-05-06T10:58:11.521Z,100959.31
2018-05-06T11:00:39.040Z,100957.82
2018-05-06T11:03:06.550Z,100945.25
2018-05-06T11:05:34.037Z,100950.88
2018-05-06T11:08:01.521Z,100952.66
2018-05-06T11:10:29.181Z,100940.03
2018-05-06T11:12:56.668Z,100935.77
2018-05-06T11:15:24.449Z,100934.52
2018-05-06T11:17:51.981Z,100933.32
2018-05-06T11:20:19.465Z,100913.81
2018-05-06T11:22:46.966Z,100928.56
2018-05-06T11:25:14.472Z,100920.01
2018-05-06T11:27:42.136Z,100927.16
2018-05-06T11:30:09.625Z,100919.44
2018-05-06T11:32:37.105Z,100916.54
2018-05-06T11:35:04.614Z,100929.33
2018-05-06T11:37:32.105Z,100920.09
2018-05-06T11:39:59.762Z,100915.00
2018-05-06T11:42:27.250Z,100910.39
2018-05-06T11:44:54.826Z,100909.25
2018-05-06T11:47:22.340Z,100930.18
2018-05-06T11:49:49.816Z,100915.13
2018-05-06T11:52:17.349Z,100902.63
2018-05-06T11:54:44.829Z,100894.94
2018-05-06T11:57:12.304Z,100898.27
2018-05-06T11:59:39.813Z,100896.85
2018-05-06T12:02:07.289Z,100885.73
2018-05-06T12:04:35.172Z,100887.70
2018-05-06T12:07:02.657Z,100882.58
2018-05-06T12:09:30.136Z,100882.26
2018-05-06T12:11:57.648Z,100881.63
2018-05-06T12:14:25.125Z,100877.91
2018-05-06T12:16:52.876Z,100865.54
2018-05-06T12:19:20.353Z,100863.00
2018-05-06T12:21:47.830Z,100859.64
2018-05-06T12:24:15.366Z,100848.00
2018-05-06T12:26:42.856Z,100857.16
2018-05-06T12:29:10.593Z,100849.38
2018-05-06T12:31:38.085Z,100854.92
2018-05-06T12:34:05.569Z,100847.09
2018-05-06T12:36:33.069Z,100848.51
2018-05-06T12:39:00.552Z,100846.72
2018-05-06T12:41:28.168Z,100847.39
2018-05-06T12:43:55.657Z,100840.28
2018-05-06T12:46:23.140Z,100832.58
2018-05-06T12:48:50.648Z,100822.66
2018-05-06T12:51:18.125Z,100815.61
2018-05-06T12:53:45.848Z,100815.77
2018-05-06T12:56:13.329Z,100823.92
2018-05-06T12:58:40.844Z,100810.05
2018-05-06T13:01:08.369Z,100805.89
2018-05-06T13:03:35.857Z,100801.45
2018-05-06T13:06:03.385Z,100794.00
2018-05-06T13:08:30.860Z,100791.02
2018-05-06T13:10:58.352Z,100791.68
2018-05-06T13:13:25.869Z,100794.66
2018-05-06T13:15:53.349Z,100786.09
2018-05-06T13:18:21.305Z,100775.54
2018-05-06T13:20:48.819Z,100771.36
2018-05-06T13:23:16.298Z,100771.74
2018-05-06T13:25:43.813Z,100770.78
2018-05-06T13:28:11.293Z,100768.06
2018-05-06T13:30:39.168Z,100770.17
2018-05-06T13:33:06.645Z,100766.63
2018-05-06T13:35:34.133Z,100760.14
2018-05-06T13:38:01.641Z,100765.86
2018-05-06T13:40:29.121Z,100760.71
2018-05-06T13:42:56.953Z,100757.28
2018-05-06T13:45:24.440Z,100750.22
2018-05-06T13:47:51.941Z,100749.23
2018-05-06T13:50:19.461Z,100740.18
2018-05-06T13:52:46.962Z,100749.75
2018-05-06T13:55:14.687Z,100737.44
2018-05-06T13:57:42.184Z,100738.52
2018-05-06T14:00:09.676Z,100743.14
2018-05-06T14:02:37.181Z,100740.92
2018-05-06T14:05:04.679Z,100731.42
2018-05-06T14:07:32.341Z,100719.87
2018-05-06T14:09:59.829Z,100715.22
2018-05-06T14:12:27.305Z,100718.91
2018-05-06T14:14:54.973Z,100714.45
2018-05-06T14:17:22.449Z,100709.39
2018-05-06T14:19:50.097Z,100711.70
2018-05-06T14:22:17.585Z,100704.78
2018-05-06T14:24:45.062Z,100704.38
2018-05-06T14:27:12.758Z,100700.36
2018-05-06T14:29:40.240Z,100695.78
2018-05-06T14:32:07.964Z,100692.78
2018-05-06T14:34:35.450Z,100702.09
2018-05-06T14:37:02.951Z,100701.61
2018-05-06T14:39:30.517Z,100705.16
2018-05-06T14:41:58.031Z,100695.97
2018-05-06T14:44:25.725Z,100693.59
2018-05-06T14:47:05.017Z,100691.83
2018-05-06T14:49:33.006Z,100693.89
2018-05-06T14:52:00.501Z,100692.31
2018-05-06T14:54:27.981Z,100681.31
2018-05-06T14:56:55.512Z,100682.25
2018-05-06T14:59:22.996Z,100682.11
2018-05-06T15:01:50.707Z,100684.08
2018-05-06T15:04:18.198Z,100683.58
2018-05-06T15:06:45.701Z,100690.33
2018-05-06T15:09:13.228Z,100681.31
2018-05-06T15:11:40.713Z,100676.92
2018-05-06T15:14:08.232Z,100677.67
2018-05-06T15:16:35.717Z,100679.48
2018-05-06T15:19:03.197Z,100679.12
2018-05-06T15:21:30.705Z,100674.40
2018-05-06T15:23:58.186Z,100667.16
2018-05-06T15:26:26.116Z,100666.33
2018-05-06T15:28:53.608Z,100661.38
2018-05-06T15:31:21.086Z,100666.28
2018-05-06T15:33:48.633Z,100660.47
2018-05-06T15:36:16.118Z,100666.98
2018-05-06T15:38:43.714Z,100662.68
2018-05-06T15:41:11.294Z,100657.50
2018-05-06T15:43:38.720Z,100652.23
2018-05-06T15:46:06.249Z,100654.80
2018-05-06T15:48:33.733Z,100651.70
2018-05-06T15:51:01.450Z,100659.00
2018-05-06T15:53:28.930Z,100656.42
2018-05-06T15:55:56.416Z,100657.73
2018-05-06T15:58:23.929Z,100643.31
2018-05-06T16:00:51.412Z,100645.47
2018-05-06T16:03:31.290Z,100641.45
2018-05-06T16:05:58.773Z,100645.00
2018-05-06T16:08:26.346Z,100636.79
2018-05-06T16:10:53.860Z,100636.31
2018-05-06T16:13:21.349Z,100630.89
2018-05-06T16:15:48.873Z,100632.27
2018-05-06T16:18:16.365Z,100633.27
2018-05-06T16:20:43.849Z,100628.58
2018-05-06T16:23:11.373Z,100626.69
2018-05-06T16:25:38.857Z,100626.62
2018-05-06T16:28:06.373Z,100625.48
2018-05-06T16:30:33.861Z,100627.23
2018-05-06T16:33:01.345Z,100627.81
2018-05-06T16:35:28.880Z,100626.45
2018-05-06T16:37:56.389Z,100624.95
2018-05-06T16:40:23.926Z,100620.73
2018-05-06T16:42:51.433Z,100614.20
2018-05-06T16:45:18.917Z,100615.73
2018-05-06T16:47:46.421Z,100618.41
2018-05-06T16:50:13.916Z,100610.39
2018-05-06T16:52:41.918Z,100611.86
2018-05-06T16:55:09.426Z,100607.17
2018-05-06T16:57:36.920Z,100613.08
2018-05-06T17:00:04.429Z,100615.74
2018-05-06T17:02:31.953Z,100613.28
2018-05-06T17:04:59.470Z,100615.70
2018-05-06T17:07:27.062Z,100607.68
2018-05-06T17:09:54.522Z,100607.41
2018-05-06T17:12:22.103Z,100603.63
2018-05-06T17:14:49.624Z,100601.70
2018-05-06T17:17:17.424Z,100607.81
2018-05-06T17:19:45.001Z,100603.48
2018-05-06T17:22:12.500Z,100613.91
2018-05-06T17:24:39.978Z,100604.45
2018-05-06T17:27:07.470Z,100603.47
2018-05-06T17:29:35.129Z,100613.75
2018-05-06T17:32:02.618Z,100614.59
2018-05-06T17:34:30.127Z,100615.84
2018-05-06T17:36:57.654Z,100621.09
2018-05-06T17:39:25.148Z,100626.19
2018-05-06T17:41:52.921Z,100622.52
2018-05-06T17:44:20.457Z,100624.52
2018-05-06T17:46:48.009Z,100626.83
2018-05-06T17:49:15.557Z,100627.86
2018-05-06T17:51:43.049Z,100626.32
2018-05-06T17:54:11.256Z,100625.87
2018-05-06T17:56:38.753Z,100626.39
2018-05-06T17:59:06.248Z,100628.19
2018-05-06T18:01:33.812Z,100630.09
2018-05-06T18:04:01.302Z,100626.41
2018-05-06T18:06:28.831Z,100631.16
2018-05-06T18:08:56.684Z,100635.23
2018-05-06T18:11:24.179Z,100638.38
2018-05-06T18:13:51.721Z,100635.66
2018-05-06T18:16:19.209Z,100638.98
2018-05-06T18:18:47.150Z,100641.55
2018-05-06T18:21:14.640Z,100645.69
2018-05-06T18:23:42.185Z,100642.98
2018-05-06T18:26:10.085Z,100647.22
2018-05-06T18:28:37.576Z,100645.36
2018-05-06T18:31:05.346Z,100649.20
2018-05-06T18:33:32.869Z,100651.51
2018-05-06T18:36:01.070Z,100652.92
2018-05-06T18:38:28.591Z,100649.06
2018-05-06T18:40:56.112Z,100653.16
2018-05-06T18:43:23.899Z,100656.01
2018-05-06T18:45:51.438Z,100655.85
2018-05-06T18:48:18.956Z,100654.09
2018-05-06T18:50:46.516Z,100658.41
2018-05-06T18:53:14.042Z,100656.39
2018-05-06T18:55:42.080Z,100650.45
2018-05-06T18:58:09.862Z,100657.07
2018-05-06T19:00:37.938Z,100662.98
2018-05-06T19:03:05.486Z,100668.11
2018-05-06T19:05:35.048Z,100663.77
2018-05-06T19:08:03.481Z,100666.44
2018-05-06T19:10:32.283Z,100671.30
2018-05-06T19:13:00.207Z,100677.13
2018-05-06T19:15:29.715Z,100676.59
2018-05-06T19:17:59.204Z,100673.28
2018-05-06T19:20:26.921Z,100678.25
2018-05-06T19:22:54.713Z,100678.59
2018-05-06T19:25:22.363Z,100676.55
2018-05-06T19:27:50.136Z,100678.49
2018-05-06T19:30:17.996Z,100682.44
2018-05-06T19:32:46.085Z,100686.08
2018-05-06T19:35:14.411Z,100686.12
2018-05-06T19:37:43.417Z,100689.28
2018-05-06T19:40:11.893Z,100693.60
2018-05-06T19:42:41.319Z,100685.12
2018-05-06T19:45:09.201Z,100695.28
2018-05-06T19:47:37.175Z,100692.02
2018-05-06T19:50:04.881Z,100691.19
2018-05-06T19:52:32.833Z,100695.58
2018-05-06T19:55:01.165Z,100695.39
2018-05-06T19:57:28.837Z,100699.41
2018-05-06T19:59:56.454Z,100705.02
2018-05-06T20:02:25.274Z,100707.73
2018-05-06T20:04:53.354Z,100702.35
2018-05-06T20:07:21.436Z,100705.32
2018-05-06T20:09:50.181Z,100707.08
2018-05-06T20:12:18.328Z,100708.96
2018-05-06T20:14:46.090Z,100712.67
2018-05-06T20:17:13.672Z,100714.16
2018-05-06T20:19:41.342Z,100714.13
2018-05-06T20:22:09.183Z,100717.81
2018-05-06T20:24:37.251Z,100713.77
2018-05-06T20:27:04.775Z,100723.04
2018-05-06T20:29:32.330Z,100716.75
2018-05-06T20:32:00.105Z,100720.08
2018-05-06T20:34:27.650Z,100722.86
2018-05-06T20:36:55.304Z,100724.48
2018-05-06T20:39:22.805Z,100726.44
2018-05-06T20:41:50.856Z,100725.37
2018-05-06T20:44:20.073Z,100727.94
2018-05-06T20:46:47.697Z,100720.51
2018-05-06T20:49:15.197Z,100726.21
2018-05-06T20:51:42.687Z,100731.07
2018-05-06T20:54:10.212Z,100735.08
2018-05-06T20:56:37.708Z,100732.60
2018-05-06T20:59:05.334Z,100738.47
2018-05-06T21:01:32.824Z,100725.61
2018-05-06T21:04:00.424Z,100725.73
2018-05-06T21:06:27.861Z,100729.99
2018-05-06T21:08:55.349Z,100728.66
2018-05-06T21:11:23.099Z,100727.89
2018-05-06T21:13:50.597Z,100723.20
2018-05-06T21:16:18.141Z,100724.14
2018-05-06T21:18:45.631Z,100727.19
2018-05-06T21:21:13.126Z,100717.85
2018-05-06T21:23:41.081Z,100723.18
2018-05-06T21:26:08.565Z,100727.80
2018-05-06T21:28:36.058Z,100717.28
2018-05-06T21:31:03.793Z,100712.20
2018-05-06T21:33:31.413Z,100716.94
2018-05-06T21:35:59.161Z,100722.85
2018-05-06T21:38:26.761Z,100721.06
2018-05-06T21:40:54.249Z,100715.34
2018-05-06T21:43:21.893Z,100718.30
2018-05-06T21:45:49.279Z,100708.01
2018-05-06T21:48:16.833Z,100710.05
2018-05-06T21:50:44.333Z,100717.08
2018-05-06T21:53:11.841Z,100714.95
2018-05-06T21:55:39.345Z,100723.11
2018-05-06T21:58:06.841Z,100724.19
2018-05-06T22:00:34.524Z,100719.72
2018-05-06T22:03:02.009Z,100718.45
2018-05-06T22:05:29.497Z,100722.63
2018-05-06T22:07:57.017Z,100715.42
2018-05-06T22:10:24.500Z,100721.11
2018-05-06T22:12:52.381Z,100719.89
2018-05-06T22:15:19.869Z,100718.02
2018-05-06T22:17:47.365Z,100722.72
2018-05-06T22:20:14.869Z,100718.45
2018-05-06T22:22:42.349Z,100724.75
2018-05-06T22:25:10.033Z,100717.69
2018-05-06T22:27:37.513Z,100713.20
2018-05-06T22:30:05.129Z,100717.32
2018-05-06T22:32:32.641Z,100717.27
2018-05-06T22:35:00.121Z,100720.64
2018-05-06T22:37:27.651Z,100717.44
2018-05-06T22:39:55.148Z,100718.48
2018-05-06T22:42:22.629Z,100719.17
2018-05-06T22:44:50.136Z,100718.83
2018-05-06T22:47:17.613Z,100717.12
2018-05-06T22:49:45.356Z,100714.77
2018-05-06T22:52:12.844Z,100710.47
2018-05-06T22:54:40.321Z,100709.36
2018-05-06T22:57:07.824Z,100713.08
2018-05-06T22:59:35.339Z,100713.13
2018-05-06T23:02:03.113Z,100711.22
2018-05-06T23:04:30.608Z,100709.23
2018-05-06T23:06:58.097Z,100711.17
2018-05-06T23:09:25.604Z,100721.37
2018-05-06T23:11:53.092Z,100717.12
2018-05-06T23:14:20.779Z,100722.20
2018-05-06T23:16:48.269Z,100718.75
2018-05-06T23:19:15.750Z,100718.54
2018-05-06T23:21:43.306Z,100719.19
2018-05-06T23:24:10.761Z,100724.91
2018-05-06T23:26:38.288Z,100725.37
2018-05-06T23:29:05.817Z,100718.11
2018-05-06T23:31:33.312Z,100722.00
2018-05-06T23:34:00.813Z,100718.48
2018-05-06T23:36:28.293Z,100722.70
2018-05-06T23:38:55.818Z,100727.22
2018-05-06T23:41:23.359Z,100720.19
2018-05-06T23:43:50.927Z,100719.80
2018-05-06T23:46:18.377Z,100725.33
2018-05-06T23:48:45.873Z,100729.84
2018-05-06T23:51:13.739Z,100725.27
2018-05-06T23:53:41.225Z,100735.54
2018-05-06T23:56:08.720Z,100735.73
2018-05-06T23:58:36.222Z,100736.64
